Eareckson Air Station Shemya US
ICAO: PASY
IATA:
Category: Medium
Scheduled Services:

Elevation: 95 ft
TransAlt. 18000 ft.

Airport Communications:
ASOS:135.65
ANCHORAGE CNTR:119.1
CTAF:127.2

PASY Zoom In..

If you have problems with the map follow the link
https://www.worldairports.se/pages/airport.php?
ICAO=PASY

Runways:

(A) RW 10 length 10004 ft width 150 ft
---- / hdg 105

(B) RW 28 length 10004 ft width 150 ft
ILS 110.10 / hdg 285

Location; PASY
Day. 06 / Time. 02.55 Zulu
* Altimeter: 28.87
* Temperature: 02° c. 35.6°f.
* Wind from: 240° Speed 27 kn with Gusts up to 34 kn.
Dewpoint: -02° c.
Visibility: 20 Statute Miles.
Clouds: Few 2600 ft.
Clouds: Scattered 3500 ft.
Clouds: Broken 4300 ft.

PASY 060255Z 24027G34KT 20SM FEW026 SCT035 BKN043 02/M02 A2887 RMK AO2A PK WND 24035/0159 SHSNB50E55PLB50E55 SLP779 60000 T00201022 58009 RVRNO PNO FZRANO $


Wind From 240°
Speed 27 kn.

 
 
jpsmedia worldairports.se 2019   terms of use